createdAt,value
2023-04-04T00:00:11.591Z,75.33
2023-04-04T00:02:39.944Z,75.31
2023-04-04T00:05:09.714Z,74.85
2023-04-04T00:07:37.995Z,74.48
2023-04-04T00:10:06.600Z,74.56
2023-04-04T00:12:37.164Z,74.14
2023-04-04T00:15:06.229Z,73.62
2023-04-04T00:17:34.491Z,73.64
2023-04-04T00:20:04.264Z,73.28
2023-04-04T00:22:32.809Z,73.19
2023-04-04T00:25:01.432Z,73.23
2023-04-04T00:27:29.643Z,73.41
2023-04-04T00:29:59.269Z,73.24
2023-04-04T00:32:27.672Z,73.29
2023-04-04T00:34:57.195Z,73.54
2023-04-04T00:37:25.464Z,73.37
2023-04-04T00:39:53.781Z,73.22
2023-04-04T00:42:22.385Z,72.34
2023-04-04T00:44:52.429Z,72.61
2023-04-04T00:47:23.192Z,73.33
2023-04-04T00:49:52.402Z,73.26
2023-04-04T00:52:20.709Z,73.16
2023-04-04T00:54:49.095Z,73.23
2023-04-04T00:57:17.625Z,72.72
2023-04-04T00:59:45.975Z,72.39
2023-04-04T01:02:14.270Z,72.15
2023-04-04T01:04:43.850Z,71.57
2023-04-04T01:07:12.173Z,71.96
2023-04-04T01:10:04.046Z,71.83
2023-04-04T01:12:32.499Z,71.83
2023-04-04T01:15:01.011Z,72.39
2023-04-04T01:17:29.903Z,72.71
2023-04-04T01:20:01.755Z,73.19
2023-04-04T01:22:31.285Z,73.97
2023-04-04T01:25:00.097Z,74.78
2023-04-04T01:27:29.649Z,74.84
2023-04-04T01:29:57.943Z,75.43
2023-04-04T01:32:28.889Z,75.42
2023-04-04T01:34:59.457Z,75.22
2023-04-04T01:37:31.868Z,75.16
2023-04-04T01:40:05.183Z,75.15
2023-04-04T01:42:35.673Z,74.54
2023-04-04T01:45:04.072Z,74.22
2023-04-04T01:47:38.841Z,74.34
2023-04-04T01:50:07.843Z,73.95
2023-04-04T01:52:36.388Z,73.71
2023-04-04T01:55:05.160Z,74.12
2023-04-04T01:57:34.688Z,73.90
2023-04-04T02:00:03.188Z,73.95
2023-04-04T02:02:31.622Z,73.50
2023-04-04T02:04:59.871Z,73.66
2023-04-04T02:07:28.451Z,73.71
2023-04-04T02:09:56.754Z,74.11
2023-04-04T02:12:24.932Z,74.44
2023-04-04T02:14:54.693Z,74.24
2023-04-04T02:17:23.039Z,74.69
2023-04-04T02:19:51.217Z,75.17
2023-04-04T02:22:19.449Z,75.63
2023-04-04T02:24:47.730Z,75.54
2023-04-04T02:27:16.185Z,76.17
2023-04-04T02:29:44.472Z,75.58
2023-04-04T02:32:14.384Z,75.84
2023-04-04T02:34:42.676Z,75.91
2023-04-04T02:37:11.064Z,76.36
2023-04-04T02:39:39.465Z,76.56
2023-04-04T02:42:07.719Z,77.13
2023-04-04T02:44:35.979Z,77.42
2023-04-04T02:47:04.225Z,77.46
2023-04-04T02:49:33.793Z,76.95
2023-04-04T02:52:02.231Z,77.15
2023-04-04T02:54:30.695Z,77.61
2023-04-04T02:56:58.910Z,76.85
2023-04-04T02:59:27.323Z,76.92
2023-04-04T03:01:55.704Z,76.71
2023-04-04T03:04:24.279Z,76.42
2023-04-04T03:06:54.115Z,76.35
2023-04-04T03:09:22.397Z,76.02
2023-04-04T03:11:51.488Z,75.90
2023-04-04T03:14:19.777Z,76.67
2023-04-04T03:16:49.839Z,76.16
2023-04-04T03:19:18.170Z,76.70
2023-04-04T03:21:46.429Z,76.38
2023-04-04T03:24:16.068Z,76.76
2023-04-04T03:26:44.324Z,76.99
2023-04-04T03:29:12.788Z,76.93
2023-04-04T03:31:41.432Z,77.44
2023-04-04T03:34:09.722Z,77.79
2023-04-04T03:36:38.066Z,78.59
2023-04-04T03:39:06.632Z,78.88
2023-04-04T03:41:56.257Z,79.29
2023-04-04T03:44:24.560Z,79.99
2023-04-04T03:46:52.901Z,80.18
2023-04-04T03:49:21.189Z,80.86
2023-04-04T03:51:50.008Z,80.58
2023-04-04T03:54:18.936Z,80.65
2023-04-04T03:56:48.090Z,81.25
2023-04-04T03:59:17.731Z,81.73
2023-04-04T04:01:46.526Z,81.93
2023-04-04T04:04:14.786Z,82.13
2023-04-04T04:06:43.943Z,82.25
2023-04-04T04:09:12.308Z,82.39
2023-04-04T04:11:40.528Z,82.87
2023-04-04T04:14:08.937Z,83.40
2023-04-04T04:16:41.578Z,83.37
2023-04-04T04:19:10.104Z,83.63
2023-04-04T04:21:38.338Z,83.46
2023-04-04T04:24:07.004Z,83.89
2023-04-04T04:26:35.586Z,84.09
2023-04-04T04:29:03.884Z,83.81
2023-04-04T04:31:32.335Z,84.01
2023-04-04T04:34:03.926Z,84.59
2023-04-04T04:36:32.536Z,84.31
2023-04-04T04:39:01.005Z,84.71
2023-04-04T04:41:29.872Z,84.84
2023-04-04T04:43:58.172Z,84.31
2023-04-04T04:46:26.481Z,84.68
2023-04-04T04:48:55.035Z,85.04
2023-04-04T04:51:25.174Z,84.86
2023-04-04T04:53:53.498Z,85.53
2023-04-04T04:56:21.674Z,85.50
2023-04-04T04:58:51.098Z,85.74
2023-04-04T05:01:19.466Z,85.88
2023-04-04T05:03:47.736Z,85.73
2023-04-04T05:06:16.242Z,85.80
2023-04-04T05:08:45.942Z,85.31
2023-04-04T05:11:14.213Z,85.30
2023-04-04T05:13:42.605Z,85.74
2023-04-04T05:16:11.360Z,85.50
2023-04-04T05:18:39.666Z,85.24
2023-04-04T05:21:20.796Z,85.17
2023-04-04T05:23:50.517Z,85.09
2023-04-04T05:26:19.125Z,84.69
2023-04-04T05:28:47.880Z,84.14
2023-04-04T05:31:16.369Z,84.00
2023-04-04T05:33:45.422Z,83.50
2023-04-04T05:36:13.808Z,83.29
2023-04-04T05:38:42.312Z,82.80
2023-04-04T05:41:12.185Z,83.06
2023-04-04T05:43:40.824Z,82.62
2023-04-04T05:46:09.199Z,81.72
2023-04-04T05:48:37.530Z,80.62
2023-04-04T05:51:06.023Z,79.84
2023-04-04T05:53:34.803Z,78.91
2023-04-04T05:56:03.450Z,78.78
2023-04-04T05:58:33.171Z,78.11
2023-04-04T06:01:01.582Z,77.36
2023-04-04T06:03:29.962Z,76.76
2023-04-04T06:05:58.537Z,76.45
2023-04-04T06:08:26.994Z,76.05
2023-04-04T06:10:55.990Z,75.46
2023-04-04T06:13:24.841Z,74.75
2023-04-04T06:15:54.401Z,74.84
2023-04-04T06:18:22.810Z,74.05
2023-04-04T06:20:51.441Z,73.25
2023-04-04T06:23:19.638Z,72.09
2023-04-04T06:25:48.377Z,71.52
2023-04-04T06:28:18.082Z,70.01
2023-04-04T06:30:47.854Z,69.22
2023-04-04T06:33:17.450Z,68.92
2023-04-04T06:35:45.848Z,68.56
2023-04-04T06:38:14.315Z,68.62
2023-04-04T06:40:42.500Z,67.82
2023-04-04T06:43:11.354Z,68.18
2023-04-04T06:45:39.826Z,67.81
2023-04-04T06:48:08.137Z,67.13
2023-04-04T06:50:38.689Z,67.37
2023-04-04T06:53:07.660Z,66.50
2023-04-04T06:55:36.114Z,66.50
2023-04-04T06:58:04.356Z,66.76
2023-04-04T07:00:32.834Z,66.80
2023-04-04T07:03:01.475Z,66.18
2023-04-04T07:05:29.977Z,66.98
2023-04-04T07:07:59.516Z,66.04
2023-04-04T07:10:47.884Z,65.58
2023-04-04T07:13:16.720Z,65.42
2023-04-04T07:15:49.374Z,64.99
2023-04-04T07:18:17.733Z,65.17
2023-04-04T07:20:47.565Z,62.31
2023-04-04T07:23:17.199Z,58.73
2023-04-04T07:25:46.068Z,55.42
2023-04-04T07:28:14.285Z,52.91
2023-04-04T07:30:42.810Z,48.91
2023-04-04T07:33:11.472Z,44.44
2023-04-04T07:35:39.904Z,43.29
2023-04-04T07:38:08.237Z,41.28
2023-04-04T07:40:38.180Z,39.90
2023-04-04T07:43:06.800Z,39.26
2023-04-04T07:45:35.168Z,39.04
2023-04-04T07:48:03.770Z,36.62
2023-04-04T07:50:32.098Z,38.05
2023-04-04T07:53:00.347Z,37.25
2023-04-04T07:55:29.024Z,35.48
2023-04-04T07:57:59.466Z,37.63
2023-04-04T08:00:27.778Z,40.03
2023-04-04T08:02:58.912Z,39.36
2023-04-04T08:05:28.014Z,36.50
2023-04-04T08:07:56.407Z,35.05
2023-04-04T08:10:24.692Z,32.27
2023-04-04T08:12:53.179Z,32.01
2023-04-04T08:15:22.694Z,31.38
2023-04-04T08:17:51.104Z,29.38
2023-04-04T08:20:19.474Z,27.71
2023-04-04T08:22:48.286Z,27.26
2023-04-04T08:25:16.893Z,23.61
2023-04-04T08:27:45.577Z,23.89
2023-04-04T08:30:14.564Z,24.98
2023-04-04T08:32:45.926Z,26.69
2023-04-04T08:35:14.475Z,26.64
2023-04-04T08:37:44.882Z,27.86
2023-04-04T08:40:13.477Z,25.42
2023-04-04T08:42:43.227Z,23.22
2023-04-04T08:45:12.137Z,24.34
2023-04-04T08:47:41.226Z,24.22
2023-04-04T08:50:11.607Z,25.94
2023-04-04T08:52:41.627Z,27.04
2023-04-04T08:55:10.245Z,24.66
2023-04-04T08:57:39.008Z,23.81
2023-04-04T09:00:08.331Z,21.51
2023-04-04T09:02:40.790Z,20.03
2023-04-04T09:05:13.468Z,19.27
2023-04-04T09:07:41.994Z,21.45
2023-04-04T09:10:11.586Z,20.93
2023-04-04T09:12:41.164Z,21.45
2023-04-04T09:15:10.633Z,22.32
2023-04-04T09:17:38.854Z,25.76
2023-04-04T09:20:22.299Z,25.72
2023-04-04T09:22:52.221Z,23.82
2023-04-04T09:25:20.442Z,22.28
2023-04-04T09:27:54.275Z,23.11
2023-04-04T09:30:22.571Z,20.12
2023-04-04T09:32:50.886Z,22.85
2023-04-04T09:35:21.693Z,22.65
2023-04-04T09:37:52.132Z,23.61
2023-04-04T09:40:23.929Z,23.74
2023-04-04T09:42:54.778Z,22.03
2023-04-04T09:45:31.742Z,21.27
2023-04-04T09:48:01.107Z,20.81
2023-04-04T09:50:30.360Z,23.25
2023-04-04T09:53:00.143Z,22.53
2023-04-04T09:55:36.571Z,23.85
2023-04-04T09:58:13.507Z,21.68
2023-04-04T10:00:44.902Z,23.72
2023-04-04T10:03:14.507Z,23.01
2023-04-04T10:05:42.878Z,21.18
2023-04-04T10:08:22.569Z,19.18
2023-04-04T10:11:06.669Z,18.16
2023-04-04T10:13:41.108Z,21.57
2023-04-04T10:16:11.657Z,20.81
2023-04-04T10:18:40.465Z,22.77
2023-04-04T10:21:19.916Z,19.72
2023-04-04T10:23:49.584Z,19.54
2023-04-04T10:26:19.120Z,22.84
2023-04-04T10:28:47.707Z,22.48
2023-04-04T10:31:18.162Z,22.13
2023-04-04T10:33:49.389Z,20.85
2023-04-04T10:36:22.316Z,21.30
2023-04-04T10:38:56.297Z,21.18
2023-04-04T10:41:26.372Z,21.72
2023-04-04T10:43:57.485Z,21.93
2023-04-04T10:46:30.930Z,19.48
2023-04-04T10:49:01.192Z,19.71
2023-04-04T10:51:32.629Z,17.81
2023-04-04T10:54:02.396Z,17.26
2023-04-04T10:56:32.126Z,15.43
2023-04-04T10:59:13.447Z,14.29
2023-04-04T11:01:48.435Z,17.25
2023-04-04T11:04:20.362Z,20.55
2023-04-04T11:07:08.717Z,20.13
2023-04-04T11:09:54.839Z,19.74
2023-04-04T11:12:28.166Z,21.46
2023-04-04T11:14:58.101Z,20.54
2023-04-04T11:17:46.346Z,18.81
2023-04-04T11:20:16.773Z,15.31
2023-04-04T11:22:45.630Z,16.16
2023-04-04T11:25:32.940Z,14.62
2023-04-04T11:28:06.802Z,17.65
2023-04-04T11:30:44.970Z,16.05
2023-04-04T11:33:15.091Z,16.50
2023-04-04T11:35:47.163Z,16.02
2023-04-04T11:38:16.314Z,17.96
2023-04-04T11:40:53.726Z,19.72
2023-04-04T11:43:24.781Z,18.57
2023-04-04T11:45:55.742Z,19.82
2023-04-04T11:48:24.961Z,19.10
2023-04-04T11:50:53.952Z,20.44
2023-04-04T11:53:22.347Z,20.31
2023-04-04T11:55:51.566Z,18.67
2023-04-04T11:58:20.462Z,17.47
2023-04-04T12:00:50.779Z,20.15
2023-04-04T12:03:19.190Z,21.06
2023-04-04T12:05:47.779Z,19.08
2023-04-04T12:08:18.028Z,18.48
2023-04-04T12:10:46.671Z,18.09
2023-04-04T12:13:14.843Z,21.08
2023-04-04T12:15:43.974Z,22.83
2023-04-04T12:18:21.637Z,24.07
2023-04-04T12:20:50.204Z,22.96
2023-04-04T12:23:18.472Z,19.13
2023-04-04T12:25:49.923Z,17.86
2023-04-04T12:28:18.332Z,18.66
2023-04-04T12:30:47.199Z,20.93
2023-04-04T12:33:17.290Z,19.53
2023-04-04T12:35:52.118Z,18.60
2023-04-04T12:38:20.779Z,16.67
2023-04-04T12:40:52.379Z,15.91
2023-04-04T12:43:21.444Z,18.18
2023-04-04T12:45:51.307Z,21.54
2023-04-04T12:48:22.749Z,19.77
2023-04-04T12:50:52.736Z,20.54
2023-04-04T12:53:28.911Z,21.21
2023-04-04T12:56:04.480Z,18.88
2023-04-04T12:58:35.915Z,15.88
2023-04-04T13:01:06.978Z,20.31
2023-04-04T13:03:37.891Z,20.59
2023-04-04T13:06:12.487Z,20.42
2023-04-04T13:08:49.901Z,20.35
2023-04-04T13:11:18.783Z,17.98
2023-04-04T13:16:31.086Z,16.52
2023-04-04T13:19:03.951Z,18.38
2023-04-04T13:21:32.506Z,19.28
2023-04-04T13:24:02.890Z,18.85
2023-04-04T13:26:31.170Z,18.07
2023-04-04T13:28:59.802Z,19.44
2023-04-04T13:31:28.870Z,18.50
2023-04-04T13:33:57.586Z,20.21
2023-04-04T13:36:28.405Z,21.41
2023-04-04T13:38:57.078Z,22.35
2023-04-04T13:41:25.354Z,23.15
2023-04-04T13:43:53.922Z,20.88
2023-04-04T13:46:22.227Z,19.71
2023-04-04T13:48:50.594Z,21.26
2023-04-04T13:51:19.148Z,23.17
2023-04-04T13:53:49.179Z,24.62
2023-04-04T13:56:19.054Z,25.87
2023-04-04T13:58:47.978Z,23.24
2023-04-04T14:01:16.743Z,22.31
2023-04-04T14:03:45.168Z,21.53
2023-04-04T14:06:13.386Z,22.69
2023-04-04T14:08:41.655Z,23.50
2023-04-04T14:11:11.586Z,23.46
2023-04-04T14:13:39.817Z,24.79
2023-04-04T14:16:09.359Z,24.18
2023-04-04T14:18:37.642Z,23.50
2023-04-04T14:21:06.261Z,22.04
2023-04-04T14:23:34.493Z,21.16
2023-04-04T14:26:04.140Z,23.90
2023-04-04T14:28:33.939Z,23.65
2023-04-04T14:31:02.199Z,24.47
2023-04-04T14:33:30.916Z,25.16
2023-04-04T14:35:59.320Z,23.25
2023-04-04T14:38:27.618Z,23.78
2023-04-04T14:40:56.454Z,23.97
2023-04-04T14:43:24.670Z,24.37
2023-04-04T14:45:54.249Z,27.37
2023-04-04T14:48:22.504Z,27.25
2023-04-04T14:50:51.159Z,29.47
2023-04-04T14:53:19.718Z,30.58
2023-04-04T14:55:48.322Z,30.18
2023-04-04T14:58:16.556Z,29.34
2023-04-04T15:00:45.980Z,30.41
2023-04-04T15:03:15.926Z,29.45
2023-04-04T15:05:44.436Z,31.40
2023-04-04T15:08:12.668Z,31.37
2023-04-04T15:10:41.523Z,31.57
2023-04-04T15:13:10.053Z,30.75
2023-04-04T15:15:38.796Z,32.02
2023-04-04T15:18:07.473Z,31.63
2023-04-04T15:20:40.025Z,31.52
2023-04-04T15:23:09.135Z,31.54
2023-04-04T15:25:37.620Z,33.38
2023-04-04T15:28:05.874Z,33.35
2023-04-04T15:30:34.268Z,34.13
2023-04-04T15:33:02.817Z,33.93
2023-04-04T15:35:31.419Z,33.23
2023-04-04T15:38:01.206Z,34.55
2023-04-04T15:40:29.517Z,34.03
2023-04-04T15:42:58.462Z,34.32
2023-04-04T15:45:27.277Z,34.87
2023-04-04T15:47:56.084Z,35.45
2023-04-04T15:50:26.736Z,34.48
2023-04-04T15:52:55.088Z,34.78
2023-04-04T15:55:24.838Z,35.23
2023-04-04T15:57:53.206Z,33.61
2023-04-04T16:00:21.821Z,33.81
2023-04-04T16:02:50.850Z,34.29
2023-04-04T16:05:19.334Z,34.78
2023-04-04T16:07:47.573Z,35.25
2023-04-04T16:10:16.196Z,36.92
2023-04-04T16:12:45.762Z,37.46
2023-04-04T16:15:14.389Z,35.99
2023-04-04T16:17:42.632Z,36.92
2023-04-04T16:20:11.914Z,37.49
2023-04-04T16:22:40.350Z,37.57
2023-04-04T16:25:09.503Z,37.19
2023-04-04T16:27:39.150Z,37.60
2023-04-04T16:30:12.590Z,37.76
2023-04-04T16:32:41.729Z,38.17
2023-04-04T16:35:10.310Z,39.29
2023-04-04T16:37:38.517Z,38.58
2023-04-04T16:40:07.687Z,39.07
2023-04-04T16:42:36.422Z,38.92
2023-04-04T16:45:08.083Z,39.73
2023-04-04T16:47:37.971Z,37.80
2023-04-04T16:50:07.138Z,38.24
2023-04-04T16:52:35.777Z,39.57
2023-04-04T16:55:04.436Z,39.23
2023-04-04T16:57:32.937Z,39.41
2023-04-04T17:00:01.700Z,40.19
2023-04-04T17:02:30.070Z,39.99
2023-04-04T17:04:59.666Z,40.30
2023-04-04T17:07:28.086Z,40.00
2023-04-04T17:09:57.151Z,40.59
2023-04-04T17:12:25.367Z,40.42
2023-04-04T17:14:53.619Z,41.22
2023-04-04T17:17:21.882Z,41.47
2023-04-04T17:19:50.256Z,41.24
2023-04-04T17:22:34.124Z,40.85
2023-04-04T17:25:03.484Z,41.74
2023-04-04T17:27:31.742Z,42.44
2023-04-04T17:30:01.686Z,42.38
2023-04-04T17:32:30.300Z,43.82
2023-04-04T17:34:58.558Z,43.18
2023-04-04T17:37:29.098Z,43.01
2023-04-04T17:39:57.987Z,43.84
2023-04-04T17:42:26.253Z,43.96
2023-04-04T17:44:54.658Z,44.52
2023-04-04T17:47:22.864Z,43.97
2023-04-04T17:49:51.989Z,45.34
2023-04-04T17:52:20.430Z,46.40
2023-04-04T17:54:52.298Z,46.17
2023-04-04T17:57:21.546Z,46.84
2023-04-04T17:59:49.780Z,45.86
2023-04-04T18:02:18.724Z,46.62
2023-04-04T18:04:47.856Z,47.14
2023-04-04T18:07:16.890Z,47.16
2023-04-04T18:09:45.608Z,48.01
2023-04-04T18:12:15.843Z,47.33
2023-04-04T18:14:44.156Z,48.02
2023-04-04T18:17:12.660Z,48.14
2023-04-04T18:19:41.405Z,48.89
2023-04-04T18:22:10.128Z,48.75
2023-04-04T18:24:38.422Z,49.37
2023-04-04T18:27:07.343Z,50.34
2023-04-04T18:29:36.916Z,50.34
2023-04-04T18:32:05.217Z,50.65
2023-04-04T18:34:33.546Z,51.32
2023-04-04T18:37:02.123Z,51.16
2023-04-04T18:39:30.635Z,51.91
2023-04-04T18:41:58.880Z,52.07
2023-04-04T18:44:27.390Z,53.27
2023-04-04T18:46:58.704Z,53.67
2023-04-04T18:49:27.205Z,54.81
2023-04-04T18:51:55.469Z,54.34
2023-04-04T18:54:23.795Z,55.63
2023-04-04T18:56:52.250Z,55.38
2023-04-04T18:59:22.444Z,55.41
2023-04-04T19:01:52.585Z,56.07
2023-04-04T19:04:22.594Z,56.46
2023-04-04T19:06:51.371Z,57.42
2023-04-04T19:09:22.949Z,57.77
2023-04-04T19:11:53.617Z,57.97
2023-04-04T19:14:22.295Z,58.61
2023-04-04T19:16:52.342Z,57.90
2023-04-04T19:19:22.758Z,58.42
2023-04-04T19:21:51.101Z,57.36
2023-04-04T19:24:19.385Z,56.32
2023-04-04T19:26:47.921Z,55.59
2023-04-04T19:29:19.077Z,54.37
2023-04-04T19:31:48.467Z,53.78
2023-04-04T19:34:17.376Z,53.55
2023-04-04T19:36:47.062Z,52.91
2023-04-04T19:39:19.405Z,53.59
2023-04-04T19:41:48.131Z,52.73
2023-04-04T19:44:21.220Z,52.26
2023-04-04T19:46:50.176Z,52.35
2023-04-04T19:49:19.187Z,52.18
2023-04-04T19:51:53.068Z,52.64
2023-04-04T19:54:25.056Z,53.17
2023-04-04T19:56:56.669Z,54.37
2023-04-04T19:59:43.864Z,54.38
2023-04-04T20:02:36.355Z,54.23
2023-04-04T20:05:24.954Z,54.65
2023-04-04T20:07:55.199Z,54.94
2023-04-04T20:10:36.586Z,55.75
2023-04-04T20:13:06.393Z,56.33
2023-04-04T20:15:55.184Z,56.19
2023-04-04T20:18:24.863Z,56.36
2023-04-04T20:20:58.696Z,57.20
2023-04-04T20:23:28.894Z,56.66
2023-04-04T20:26:01.753Z,56.28
2023-04-04T20:28:30.303Z,56.93
2023-04-04T20:31:01.748Z,57.69
2023-04-04T20:33:32.084Z,57.11
2023-04-04T20:36:07.196Z,56.18
2023-04-04T20:38:38.555Z,55.85
2023-04-04T20:41:11.394Z,56.02
2023-04-04T20:43:40.053Z,56.25
2023-04-04T20:46:09.399Z,55.72
2023-04-04T20:48:38.645Z,55.34
2023-04-04T20:51:23.641Z,55.35
2023-04-04T20:53:56.209Z,55.14
2023-04-04T20:56:45.857Z,54.17
2023-04-04T20:59:34.528Z,54.14
2023-04-04T21:02:10.820Z,54.55
2023-04-04T21:04:40.843Z,55.03
2023-04-04T21:07:09.207Z,55.30
2023-04-04T21:09:57.121Z,56.22
2023-04-04T21:12:28.447Z,55.47
2023-04-04T21:15:20.802Z,56.09
2023-04-04T21:17:49.524Z,56.31
2023-04-04T21:20:38.068Z,57.65
2023-04-04T21:23:07.285Z,58.20
2023-04-04T21:25:45.077Z,59.10
2023-04-04T21:28:13.592Z,59.53
2023-04-04T21:30:43.574Z,59.33
2023-04-04T21:33:16.950Z,58.90
2023-04-04T21:35:46.638Z,58.78
2023-04-04T21:38:24.489Z,58.10
2023-04-04T21:40:54.242Z,58.57
2023-04-04T21:43:25.187Z,57.67
2023-04-04T21:45:55.017Z,58.82
2023-04-04T21:48:23.392Z,58.44
2023-04-04T21:50:51.738Z,58.74
2023-04-04T21:53:21.885Z,58.89
2023-04-04T21:55:50.139Z,59.13
2023-04-04T21:58:19.924Z,59.19
2023-04-04T22:00:48.857Z,59.45
2023-04-04T22:03:17.643Z,59.82
2023-04-04T22:05:46.294Z,60.45
2023-04-04T22:08:14.715Z,60.69
2023-04-04T22:10:50.038Z,60.48
2023-04-04T22:13:22.339Z,59.79
2023-04-04T22:15:50.879Z,59.90
2023-04-04T22:18:30.455Z,60.87
2023-04-04T22:21:02.935Z,60.67
2023-04-04T22:23:35.218Z,60.56
2023-04-04T22:26:05.201Z,60.23
2023-04-04T22:28:35.840Z,60.85
2023-04-04T22:31:05.442Z,61.30
2023-04-04T22:33:34.045Z,62.53
2023-04-04T22:36:02.855Z,62.05
2023-04-04T22:38:31.296Z,61.84
2023-04-04T22:40:59.592Z,61.78
2023-04-04T22:43:28.705Z,62.04
2023-04-04T22:45:58.518Z,62.49
2023-04-04T22:48:26.968Z,62.69
2023-04-04T22:50:58.759Z,63.55
2023-04-04T22:53:27.157Z,63.24
2023-04-04T22:55:59.796Z,64.07
2023-04-04T22:58:28.131Z,64.36
2023-04-04T23:00:57.772Z,64.16
2023-04-04T23:03:26.356Z,63.69
2023-04-04T23:05:54.555Z,63.44
2023-04-04T23:08:23.338Z,63.87
2023-04-04T23:10:51.995Z,63.79
2023-04-04T23:13:20.815Z,64.17
2023-04-04T23:15:49.168Z,64.45
2023-04-04T23:18:19.130Z,63.43
2023-04-04T23:20:47.451Z,63.32
2023-04-04T23:23:15.865Z,63.59
2023-04-04T23:25:44.755Z,62.77
2023-04-04T23:28:13.129Z,62.70
2023-04-04T23:30:41.643Z,62.32
2023-04-04T23:33:10.196Z,62.30
2023-04-04T23:35:40.155Z,61.25
2023-04-04T23:38:13.232Z,61.33
2023-04-04T23:40:41.915Z,60.63
2023-04-04T23:43:10.754Z,60.41
2023-04-04T23:45:40.830Z,60.31
2023-04-04T23:48:09.088Z,60.20
2023-04-04T23:50:38.039Z,61.08
2023-04-04T23:53:07.829Z,62.16
2023-04-04T23:55:36.370Z,63.02
2023-04-04T23:58:04.651Z,62.69
